Terminal Aerodrome Forecast
Issued by NWS Sterling, VA

Current Version | Previous Version | Graphics & Text | Print | Product List | Glossary On
Versions: 1 2 3 4 5 6 7 8 9 10 11 12 13 14 15 16 17 18 19 20 21
000
FTUS41 KLWX 290524
TAFIAD
TAF
KIAD 290524Z 2906/3012 17004KT P6SM BKN050
     FM290800 VRB03KT P6SM SCT050
     FM291500 20007KT P6SM FEW060
     FM301000 VRB03KT P6SM SCT120=

USA.gov is the U.S. government's official web portal to all federal, state and local government web resources and services.